Terminal Aerodrome Forecast
Issued by NWS

Current Version | Previous Version | Text Only | Print | Product List | Glossary On
Versions: 1 2 3 4 5 6 7 8 9 10 11 12 13 14 15 16 17
000
FTUS42 TJSJ 311100
TAFJPS
TAF
TJPS 311125Z 3112/0112 VRB05KT P6SM FEW025 SCT050
     FM311450 14007KT P6SM FEW030
     FM312150 03005KT P6SM SKC
      AMD NOT SKED TIL 010300=

USA.gov is the U.S. government's official web portal to all federal, state and local government web resources and services.